Omena, Michigan
Current Conditions -  °F | °C
As of 4:38 AM on Monday 20 Oct 2014 (Local Time) from KACB Reporting Station
Overcast Overcast  
Wind Chill: 50°   Ceiling: 4800
Heat Index: 50°   Visibility: 10mi
Dew Point: 46°   Wind: 0mph
Humidity: 87%   Direction: NA
Pressure: 29.75"   Gusts: NA
Location:  45.06°N, 85.59°W
Report Text: KACB 200838Z AUTO 00000KT 10SM OVC048 10/08 A2975 RMK AO2 T01010080
Loading
Personal Weather Stations






























Interactive Weather Map
Tropical Storm Tracking
New forecast layout! Learn more

10-Day Weather Forecast

Advertisements
Track Severe Weather on mobile